createdAt,value
2023-04-07T00:02:10.720Z,45.90
2023-04-07T00:04:40.597Z,46.10
2023-04-07T00:07:08.098Z,46.20
2023-04-07T00:09:35.510Z,46.10
2023-04-07T00:12:02.854Z,46.30
2023-04-07T00:14:30.232Z,46.30
2023-04-07T00:16:57.526Z,46.40
2023-04-07T00:19:29.518Z,46.60
2023-04-07T00:21:59.025Z,46.80
2023-04-07T00:24:33.954Z,47.40
2023-04-07T00:27:02.424Z,46.70
2023-04-07T00:29:32.430Z,46.70
2023-04-07T00:31:59.739Z,46.70
2023-04-07T00:34:31.920Z,46.80
2023-04-07T00:36:59.193Z,46.80
2023-04-07T00:39:31.456Z,46.80
2023-04-07T00:42:01.074Z,46.80
2023-04-07T00:44:30.835Z,46.90
2023-04-07T00:46:58.740Z,46.90
2023-04-07T00:49:28.377Z,47.00
2023-04-07T00:51:57.200Z,46.90
2023-04-07T00:54:24.989Z,46.90
2023-04-07T00:56:55.596Z,47.00
2023-04-07T00:59:22.984Z,47.10
2023-04-07T01:02:06.156Z,47.10
2023-04-07T01:04:41.063Z,47.10
2023-04-07T01:07:32.757Z,47.00
2023-04-07T01:10:07.874Z,47.00
2023-04-07T01:13:02.711Z,47.00
2023-04-07T01:15:34.301Z,47.00
2023-04-07T01:18:13.468Z,47.00
2023-04-07T01:20:43.638Z,47.20
2023-04-07T01:23:22.305Z,47.30
2023-04-07T01:26:20.406Z,47.40
2023-04-07T01:29:22.399Z,47.30
2023-04-07T01:31:51.260Z,47.30
2023-04-07T01:34:19.154Z,47.20
2023-04-07T01:36:48.233Z,47.30
2023-04-07T01:39:18.730Z,47.30
2023-04-07T01:41:49.293Z,47.50
2023-04-07T01:44:17.723Z,48.20
2023-04-07T01:46:47.533Z,47.60
2023-04-07T01:49:15.680Z,47.60
2023-04-07T01:51:43.432Z,47.60
2023-04-07T01:54:13.136Z,47.60
2023-04-07T01:56:42.923Z,47.80
2023-04-07T01:59:10.322Z,47.70
2023-04-07T02:01:40.704Z,47.80
2023-04-07T02:04:32.046Z,48.10
2023-04-07T02:07:09.694Z,48.20
2023-04-07T02:09:42.821Z,48.20
2023-04-07T02:12:14.555Z,48.20
2023-04-07T02:14:42.124Z,48.30
2023-04-07T02:17:09.919Z,48.10
2023-04-07T02:19:37.820Z,48.00
2023-04-07T02:22:06.354Z,48.10
2023-04-07T02:24:36.087Z,48.20
2023-04-07T02:27:05.695Z,48.40
2023-04-07T02:29:35.376Z,48.40
2023-04-07T02:32:05.273Z,48.30
2023-04-07T02:34:36.210Z,48.30
2023-04-07T02:37:03.576Z,48.30
2023-04-07T02:39:30.880Z,48.40
2023-04-07T02:41:58.111Z,48.40
2023-04-07T02:44:25.340Z,48.30
2023-04-07T02:46:52.598Z,48.30
2023-04-07T02:49:22.331Z,48.40
2023-04-07T02:51:54.309Z,48.30
2023-04-07T02:54:23.909Z,48.40
2023-04-07T02:56:53.251Z,48.50
2023-04-07T02:59:22.944Z,48.60
2023-04-07T03:01:50.513Z,48.60
2023-04-07T03:04:20.182Z,48.70
2023-04-07T03:06:47.571Z,48.70
2023-04-07T03:09:15.064Z,48.70
2023-04-07T03:11:42.673Z,48.70
2023-04-07T03:14:10.216Z,48.80
2023-04-07T03:16:37.542Z,48.70
2023-04-07T03:19:04.827Z,48.70
2023-04-07T03:21:32.799Z,48.80
2023-04-07T03:24:00.449Z,48.80
2023-04-07T03:26:27.708Z,48.90
2023-04-07T03:28:54.935Z,49.00
2023-04-07T03:31:24.367Z,48.90
2023-04-07T03:33:51.879Z,48.90
2023-04-07T03:36:19.380Z,48.90
2023-04-07T03:38:48.116Z,49.00
2023-04-07T03:41:17.695Z,49.10
2023-04-07T03:43:45.029Z,49.00
2023-04-07T03:46:12.392Z,49.00
2023-04-07T03:48:39.723Z,49.00
2023-04-07T03:51:07.103Z,49.10
2023-04-07T03:53:36.660Z,49.10
2023-04-07T03:56:07.492Z,49.20
2023-04-07T03:58:42.779Z,49.10
2023-04-07T04:01:12.454Z,49.10
2023-04-07T04:03:42.756Z,49.10
2023-04-07T04:06:10.268Z,49.00
2023-04-07T04:08:37.555Z,49.60
2023-04-07T04:11:04.909Z,49.00
2023-04-07T04:13:32.330Z,49.00
2023-04-07T04:16:02.669Z,49.00
2023-04-07T04:18:34.645Z,49.20
2023-04-07T04:21:04.065Z,49.10
2023-04-07T04:23:31.335Z,49.10
2023-04-07T04:26:03.817Z,49.20
2023-04-07T04:28:31.371Z,49.30
2023-04-07T04:31:01.216Z,49.40
2023-04-07T04:33:28.542Z,49.40
2023-04-07T04:35:58.296Z,49.40
2023-04-07T04:38:25.605Z,49.40
2023-04-07T04:40:55.744Z,49.40
2023-04-07T04:43:22.998Z,49.30
2023-04-07T04:45:50.958Z,49.40
2023-04-07T04:48:20.594Z,49.40
2023-04-07T04:50:47.862Z,49.50
2023-04-07T04:53:15.117Z,49.50
2023-04-07T04:55:47.020Z,49.50
2023-04-07T04:58:16.764Z,49.60
2023-04-07T05:00:44.036Z,49.70
2023-04-07T05:03:11.585Z,49.80
2023-04-07T05:05:39.043Z,49.80
2023-04-07T05:08:06.428Z,49.80
2023-04-07T05:10:39.120Z,49.80
2023-04-07T05:13:06.585Z,49.90
2023-04-07T05:15:33.897Z,49.90
2023-04-07T05:18:03.340Z,49.90
2023-04-07T05:20:30.652Z,50.00
2023-04-07T05:23:03.088Z,49.90
2023-04-07T05:25:32.799Z,50.00
2023-04-07T05:28:03.442Z,50.00
2023-04-07T05:30:30.738Z,50.10
2023-04-07T05:32:58.104Z,50.10
2023-04-07T05:35:25.542Z,50.10
2023-04-07T05:37:52.871Z,50.10
2023-04-07T05:40:20.369Z,50.10
2023-04-07T05:42:47.646Z,50.10
2023-04-07T05:45:14.981Z,50.10
2023-04-07T05:47:44.839Z,50.10
2023-04-07T05:50:17.098Z,50.20
2023-04-07T05:52:44.394Z,50.20
2023-04-07T05:55:11.720Z,50.30
2023-04-07T05:57:38.941Z,50.30
2023-04-07T06:00:06.918Z,50.30
2023-04-07T06:02:34.345Z,50.40
2023-04-07T06:05:01.841Z,50.40
2023-04-07T06:07:29.110Z,50.30
2023-04-07T06:09:58.886Z,50.30
2023-04-07T06:12:28.543Z,50.40
2023-04-07T06:14:56.614Z,50.30
2023-04-07T06:17:26.250Z,50.30
2023-04-07T06:19:53.594Z,50.30
2023-04-07T06:22:20.878Z,50.30
2023-04-07T06:24:48.138Z,50.20
2023-04-07T06:27:16.430Z,50.20
2023-04-07T06:29:43.857Z,50.30
2023-04-07T06:32:11.140Z,50.50
2023-04-07T06:34:38.386Z,50.50
2023-04-07T06:37:08.580Z,50.10
2023-04-07T06:39:36.194Z,50.00
2023-04-07T06:42:03.470Z,50.00
2023-04-07T06:44:33.109Z,49.90
2023-04-07T06:47:00.416Z,49.80
2023-04-07T06:49:27.689Z,49.80
2023-04-07T06:51:57.402Z,49.60
2023-04-07T06:54:24.746Z,49.30
2023-04-07T06:56:53.656Z,49.10
2023-04-07T06:59:26.649Z,48.90
2023-04-07T07:01:54.001Z,48.30
2023-04-07T07:04:21.544Z,48.30
2023-04-07T07:06:49.019Z,48.10
2023-04-07T07:09:16.298Z,47.90
2023-04-07T07:11:43.567Z,47.50
2023-04-07T07:14:13.506Z,47.40
2023-04-07T07:16:45.594Z,47.30
2023-04-07T07:19:12.851Z,47.50
2023-04-07T07:21:40.308Z,47.50
2023-04-07T07:24:07.730Z,47.40
2023-04-07T07:26:35.064Z,47.60
2023-04-07T07:29:02.360Z,47.30
2023-04-07T07:31:31.215Z,47.20
2023-04-07T07:33:58.561Z,47.00
2023-04-07T07:36:28.691Z,46.70
2023-04-07T07:38:58.368Z,46.60
2023-04-07T07:41:28.023Z,46.50
2023-04-07T07:43:55.457Z,46.60
2023-04-07T07:46:24.428Z,45.90
2023-04-07T07:48:52.176Z,45.90
2023-04-07T07:51:21.977Z,45.90
2023-04-07T07:53:49.567Z,46.00
2023-04-07T07:56:19.880Z,46.00
2023-04-07T07:58:49.662Z,45.50
2023-04-07T08:01:16.918Z,45.20
2023-04-07T08:03:44.372Z,44.30
2023-04-07T08:06:14.203Z,44.50
2023-04-07T08:08:41.556Z,44.20
2023-04-07T08:11:11.427Z,43.70
2023-04-07T08:13:45.412Z,44.10
2023-04-07T08:16:15.578Z,44.10
2023-04-07T08:18:47.625Z,43.90
2023-04-07T08:21:15.618Z,44.00
2023-04-07T08:23:46.092Z,44.30
2023-04-07T08:26:13.598Z,43.90
2023-04-07T08:28:40.868Z,43.70
2023-04-07T08:31:08.207Z,44.10
2023-04-07T08:33:35.629Z,43.70
2023-04-07T08:36:03.056Z,44.70
2023-04-07T08:38:31.251Z,44.00
2023-04-07T08:41:13.198Z,42.90
2023-04-07T08:43:41.388Z,41.80
2023-04-07T08:46:12.624Z,43.30
2023-04-07T08:48:43.810Z,42.50
2023-04-07T08:51:14.013Z,42.20
2023-04-07T08:53:48.219Z,41.30
2023-04-07T08:56:18.535Z,41.30
2023-04-07T08:58:50.787Z,41.40
2023-04-07T09:01:21.668Z,41.90
2023-04-07T09:03:50.295Z,42.20
2023-04-07T09:06:20.446Z,42.40
2023-04-07T09:08:47.682Z,42.60
2023-04-07T09:11:17.301Z,42.50
2023-04-07T09:13:44.633Z,42.40
2023-04-07T09:16:14.115Z,42.60
2023-04-07T09:18:43.650Z,42.70
2023-04-07T09:21:11.759Z,42.60
2023-04-07T09:23:41.688Z,42.40
2023-04-07T09:26:22.213Z,42.40
2023-04-07T09:28:55.765Z,41.80
2023-04-07T09:31:26.446Z,42.40
2023-04-07T09:33:53.953Z,42.50
2023-04-07T09:36:21.215Z,42.00
2023-04-07T09:38:48.466Z,41.80
2023-04-07T09:41:22.418Z,42.00
2023-04-07T09:43:59.255Z,42.30
2023-04-07T09:46:29.338Z,42.50
2023-04-07T09:49:05.248Z,40.90
2023-04-07T09:51:34.407Z,41.10
2023-04-07T09:54:01.707Z,41.70
2023-04-07T09:56:29.748Z,41.40
2023-04-07T09:59:00.208Z,41.40
2023-04-07T10:01:27.835Z,41.70
2023-04-07T10:03:57.960Z,41.80
2023-04-07T10:06:27.670Z,42.20
2023-04-07T10:08:54.941Z,41.50
2023-04-07T10:11:24.878Z,42.10
2023-04-07T10:13:54.943Z,42.10
2023-04-07T10:16:23.392Z,40.80
2023-04-07T10:18:53.229Z,40.50
2023-04-07T10:21:20.510Z,40.20
2023-04-07T10:24:23.451Z,39.20
2023-04-07T10:26:59.933Z,39.90
2023-04-07T10:29:34.524Z,39.10
2023-04-07T10:32:05.076Z,39.80
2023-04-07T10:34:50.628Z,39.10
2023-04-07T10:37:22.450Z,39.10
2023-04-07T10:39:51.480Z,38.00
2023-04-07T10:42:37.415Z,39.30
2023-04-07T10:45:09.528Z,39.40
2023-04-07T10:47:58.561Z,38.80
2023-04-07T10:50:29.357Z,38.60
2023-04-07T10:53:09.821Z,39.40
2023-04-07T10:55:46.848Z,38.50
2023-04-07T10:58:19.772Z,37.40
2023-04-07T11:01:10.426Z,38.40
2023-04-07T11:03:38.692Z,38.30
2023-04-07T11:06:08.177Z,38.10
2023-04-07T11:08:39.265Z,37.40
2023-04-07T11:11:09.684Z,37.70
2023-04-07T11:13:43.859Z,37.20
2023-04-07T11:16:11.449Z,37.40
2023-04-07T11:18:39.592Z,37.90
2023-04-07T11:21:08.173Z,37.00
2023-04-07T11:23:46.189Z,37.80
2023-04-07T11:26:15.206Z,37.30
2023-04-07T11:28:53.103Z,36.40
2023-04-07T11:31:31.721Z,35.80
2023-04-07T11:34:05.156Z,37.30
2023-04-07T11:36:40.574Z,36.70
2023-04-07T11:39:22.304Z,38.00
2023-04-07T11:41:51.869Z,38.20
2023-04-07T11:44:19.409Z,36.50
2023-04-07T11:46:58.359Z,37.10
2023-04-07T11:49:31.625Z,38.70
2023-04-07T11:52:04.089Z,36.70
2023-04-07T11:54:40.394Z,36.20
2023-04-07T11:57:10.390Z,35.80
2023-04-07T11:59:41.026Z,36.40
2023-04-07T12:02:08.678Z,35.80
2023-04-07T12:04:40.797Z,37.10
2023-04-07T12:07:12.295Z,37.20
2023-04-07T12:09:42.866Z,36.90
2023-04-07T12:12:10.768Z,37.00
2023-04-07T12:14:38.191Z,37.30
2023-04-07T12:17:05.475Z,37.80
2023-04-07T12:19:34.926Z,37.50
2023-04-07T12:22:06.665Z,36.70
2023-04-07T12:24:33.913Z,36.20
2023-04-07T12:27:01.248Z,37.00
2023-04-07T12:29:30.957Z,35.80
2023-04-07T12:31:58.259Z,36.10
2023-04-07T12:34:32.545Z,36.50
2023-04-07T12:37:02.260Z,36.00
2023-04-07T12:39:33.509Z,36.70
2023-04-07T12:42:00.819Z,36.60
2023-04-07T12:44:28.146Z,36.30
2023-04-07T12:46:55.599Z,35.90
2023-04-07T12:49:22.879Z,36.50
2023-04-07T12:51:52.862Z,36.00
2023-04-07T12:54:20.139Z,36.40
2023-04-07T12:56:47.825Z,35.90
2023-04-07T12:59:17.892Z,35.80
2023-04-07T13:01:49.557Z,36.00
2023-04-07T13:04:20.663Z,36.10
2023-04-07T13:06:53.205Z,36.30
2023-04-07T13:09:20.546Z,36.60
2023-04-07T13:11:50.024Z,36.50
2023-04-07T13:14:21.864Z,36.80
2023-04-07T13:16:49.202Z,36.90
2023-04-07T13:19:18.781Z,36.60
2023-04-07T13:21:48.591Z,36.00
2023-04-07T13:24:16.028Z,35.80
2023-04-07T13:26:43.322Z,36.10
2023-04-07T13:29:13.152Z,36.70
2023-04-07T13:31:40.452Z,35.70
2023-04-07T13:34:12.285Z,35.40
2023-04-07T13:36:42.177Z,35.10
2023-04-07T13:39:09.549Z,35.20
2023-04-07T13:41:39.278Z,36.50
2023-04-07T13:44:06.572Z,36.50
2023-04-07T13:46:38.293Z,36.60
2023-04-07T13:49:10.186Z,36.90
2023-04-07T13:51:37.926Z,36.50
2023-04-07T13:54:05.180Z,35.80
2023-04-07T13:56:44.004Z,35.70
2023-04-07T13:59:13.793Z,35.90
2023-04-07T14:01:41.230Z,35.80
2023-04-07T14:04:08.762Z,35.40
2023-04-07T14:06:40.693Z,35.80
2023-04-07T14:09:08.499Z,35.80
2023-04-07T14:11:36.841Z,35.40
2023-04-07T14:14:06.665Z,36.40
2023-04-07T14:16:34.001Z,36.30
2023-04-07T14:19:04.759Z,36.00
2023-04-07T14:21:34.547Z,36.10
2023-04-07T14:24:02.008Z,35.90
2023-04-07T14:26:29.281Z,36.00
2023-04-07T14:29:01.283Z,35.40
2023-04-07T14:31:30.929Z,35.40
2023-04-07T14:34:01.085Z,35.30
2023-04-07T14:36:28.484Z,35.70
2023-04-07T14:38:56.951Z,35.50
2023-04-07T14:41:24.811Z,35.60
2023-04-07T14:43:56.159Z,35.60
2023-04-07T14:46:24.000Z,35.30
2023-04-07T14:48:54.361Z,36.10
2023-04-07T14:51:24.116Z,35.60
2023-04-07T14:53:56.042Z,35.30
2023-04-07T14:56:25.855Z,35.40
2023-04-07T14:58:53.136Z,34.90
2023-04-07T15:01:20.414Z,34.80
2023-04-07T15:03:54.272Z,35.50
2023-04-07T15:06:24.844Z,35.10
2023-04-07T15:08:52.135Z,34.90
2023-04-07T15:11:21.888Z,35.30
2023-04-07T15:13:51.797Z,35.50
2023-04-07T15:16:19.172Z,35.20
2023-04-07T15:18:49.873Z,35.30
2023-04-07T15:21:17.213Z,35.10
2023-04-07T15:23:45.746Z,35.50
2023-04-07T15:26:13.160Z,35.40
2023-04-07T15:28:42.839Z,35.40
2023-04-07T15:31:12.287Z,35.80
2023-04-07T15:33:44.221Z,35.40
2023-04-07T15:36:13.730Z,35.10
2023-04-07T15:38:43.533Z,35.20
2023-04-07T15:41:15.490Z,35.00
2023-04-07T15:43:42.743Z,34.90
2023-04-07T15:46:10.099Z,34.90
2023-04-07T15:48:39.725Z,35.00
2023-04-07T15:51:07.045Z,35.20
2023-04-07T15:53:34.513Z,34.60
2023-04-07T15:56:01.762Z,34.90
2023-04-07T15:58:31.558Z,35.40
2023-04-07T16:01:02.075Z,35.80
2023-04-07T16:03:29.633Z,35.30
2023-04-07T16:05:59.537Z,35.20
2023-04-07T16:08:29.021Z,34.70
2023-04-07T16:10:56.311Z,34.90
2023-04-07T16:13:23.658Z,34.50
2023-04-07T16:15:54.956Z,35.10
2023-04-07T16:18:22.254Z,35.00
2023-04-07T16:20:52.246Z,35.80
2023-04-07T16:23:24.470Z,36.50
2023-04-07T16:25:51.776Z,35.80
2023-04-07T16:28:23.785Z,36.10
2023-04-07T16:30:51.162Z,35.80
2023-04-07T16:33:21.063Z,35.60
2023-04-07T16:35:51.037Z,35.60
2023-04-07T16:38:18.365Z,35.90
2023-04-07T16:41:03.304Z,36.00
2023-04-07T16:43:31.928Z,35.70
2023-04-07T16:46:01.844Z,35.60
2023-04-07T16:48:29.227Z,35.40
2023-04-07T16:50:58.652Z,36.90
2023-04-07T16:53:25.999Z,36.20
2023-04-07T16:55:53.266Z,36.60
2023-04-07T16:58:23.152Z,36.80
2023-04-07T17:00:50.735Z,36.90
2023-04-07T17:03:20.443Z,36.80
2023-04-07T17:05:50.154Z,36.60
2023-04-07T17:08:17.430Z,37.70
2023-04-07T17:10:44.651Z,37.00
2023-04-07T17:13:11.865Z,37.10
2023-04-07T17:15:39.206Z,37.50
2023-04-07T17:18:09.069Z,37.30
2023-04-07T17:20:36.393Z,37.60
2023-04-07T17:23:03.714Z,36.90
2023-04-07T17:25:33.158Z,37.20
2023-04-07T17:28:00.444Z,37.20
2023-04-07T17:30:27.816Z,37.50
2023-04-07T17:32:55.386Z,37.40
2023-04-07T17:35:22.916Z,38.00
2023-04-07T17:37:50.832Z,38.60
2023-04-07T17:40:18.359Z,38.40
2023-04-07T17:42:45.795Z,38.60
2023-04-07T17:45:16.053Z,38.50
2023-04-07T17:47:43.335Z,38.80
2023-04-07T17:50:11.101Z,38.70
2023-04-07T17:52:43.273Z,38.80
2023-04-07T17:55:10.817Z,38.80
2023-04-07T17:57:40.651Z,38.80
2023-04-07T18:00:10.868Z,38.50
2023-04-07T18:02:41.290Z,38.60
2023-04-07T18:05:09.805Z,38.30
2023-04-07T18:07:39.505Z,37.90
2023-04-07T18:10:07.355Z,38.30
2023-04-07T18:12:34.696Z,38.30
2023-04-07T18:15:01.941Z,38.20
2023-04-07T18:17:29.273Z,38.00
2023-04-07T18:19:56.585Z,38.30
2023-04-07T18:22:23.922Z,38.20
2023-04-07T18:24:51.652Z,38.20
2023-04-07T18:27:20.131Z,38.10
2023-04-07T18:29:47.378Z,38.30
2023-04-07T18:32:14.721Z,38.20
2023-04-07T18:34:42.047Z,38.30
2023-04-07T18:37:13.909Z,38.50
2023-04-07T18:39:44.869Z,38.60
2023-04-07T18:42:12.099Z,38.80
2023-04-07T18:44:39.437Z,38.60
2023-04-07T18:47:08.973Z,38.60
2023-04-07T18:49:36.198Z,38.80
2023-04-07T18:52:04.243Z,38.70
2023-04-07T18:54:31.538Z,39.10
2023-04-07T18:56:59.037Z,39.40
2023-04-07T18:59:29.126Z,39.20
2023-04-07T19:01:56.917Z,39.20
2023-04-07T19:04:25.030Z,39.90
2023-04-07T19:06:52.663Z,39.50
2023-04-07T19:09:20.627Z,39.60
2023-04-07T19:11:47.940Z,39.60
2023-04-07T19:14:15.457Z,39.80
2023-04-07T19:16:44.500Z,40.30
2023-04-07T19:19:14.404Z,40.30
2023-04-07T19:21:44.249Z,40.50
2023-04-07T19:24:11.832Z,40.70
2023-04-07T19:26:39.154Z,41.00
2023-04-07T19:29:07.164Z,40.90
2023-04-07T19:31:35.016Z,41.10
2023-04-07T19:34:02.260Z,41.00
2023-04-07T19:36:29.759Z,41.10
2023-04-07T19:38:57.016Z,41.30
2023-04-07T19:41:29.328Z,41.10
2023-04-07T19:43:58.959Z,41.30
2023-04-07T19:46:28.895Z,41.50
2023-04-07T19:48:56.332Z,41.80
2023-04-07T19:51:24.138Z,41.90
2023-04-07T19:53:51.814Z,41.80
2023-04-07T19:56:21.362Z,41.50
2023-04-07T19:58:50.885Z,41.30
2023-04-07T20:01:18.823Z,41.60
2023-04-07T20:03:46.799Z,41.90
2023-04-07T20:06:15.166Z,42.00
2023-04-07T20:08:45.148Z,42.10
2023-04-07T20:11:13.351Z,42.70
2023-04-07T20:13:41.849Z,42.70
2023-04-07T20:16:10.040Z,41.80
2023-04-07T20:18:37.481Z,41.90
2023-04-07T20:21:09.826Z,41.90
2023-04-07T20:23:37.865Z,42.00
2023-04-07T20:26:09.078Z,42.10
2023-04-07T20:28:38.558Z,42.20
2023-04-07T20:31:05.902Z,42.60
2023-04-07T20:33:33.234Z,42.30
2023-04-07T20:36:00.502Z,42.50
2023-04-07T20:38:27.873Z,42.70
2023-04-07T20:40:55.604Z,42.70
2023-04-07T20:43:23.817Z,42.60
2023-04-07T20:45:52.191Z,42.60
2023-04-07T20:48:25.785Z,42.90
2023-04-07T20:50:55.573Z,43.00
2023-04-07T20:53:25.288Z,42.90
2023-04-07T20:55:54.956Z,43.00
2023-04-07T20:58:22.252Z,43.40
2023-04-07T21:00:57.355Z,43.50
2023-04-07T21:03:30.947Z,43.30
2023-04-07T21:05:58.506Z,43.30
2023-04-07T21:08:25.898Z,43.60
2023-04-07T21:10:55.968Z,43.50
2023-04-07T21:13:25.862Z,43.60
2023-04-07T21:15:53.215Z,43.70
2023-04-07T21:18:22.909Z,43.70
2023-04-07T21:20:52.709Z,43.90
2023-04-07T21:23:20.097Z,43.70
2023-04-07T21:25:47.566Z,43.70
2023-04-07T21:28:17.292Z,44.20
2023-04-07T21:30:46.907Z,44.10
2023-04-07T21:33:16.667Z,44.10
2023-04-07T21:35:43.991Z,44.10
2023-04-07T21:38:11.268Z,44.20
2023-04-07T21:40:38.498Z,44.40
2023-04-07T21:43:05.770Z,44.50
2023-04-07T21:45:33.119Z,44.70
2023-04-07T21:48:00.460Z,44.70
2023-04-07T21:50:27.741Z,45.00
2023-04-07T21:52:55.101Z,45.00
2023-04-07T21:55:22.419Z,45.20
2023-04-07T21:57:50.721Z,45.20
2023-04-07T22:00:18.159Z,45.30
2023-04-07T22:02:45.963Z,45.30
2023-04-07T22:05:13.665Z,45.40
2023-04-07T22:07:41.177Z,45.50
2023-04-07T22:10:09.181Z,45.70
2023-04-07T22:12:38.783Z,45.90
2023-04-07T22:15:06.921Z,46.00
2023-04-07T22:17:36.707Z,46.10
2023-04-07T22:20:06.740Z,46.00
2023-04-07T22:22:36.318Z,46.10
2023-04-07T22:25:06.059Z,46.30
2023-04-07T22:27:34.001Z,46.20
2023-04-07T22:30:04.500Z,46.20
2023-04-07T22:32:31.916Z,46.40
2023-04-07T22:34:59.198Z,46.40
2023-04-07T22:37:26.436Z,46.40
2023-04-07T22:39:58.864Z,46.50
2023-04-07T22:42:26.141Z,46.60
2023-04-07T22:44:53.580Z,46.60
2023-04-07T22:47:23.425Z,46.70
2023-04-07T22:49:50.760Z,46.60
2023-04-07T22:52:18.248Z,47.00
2023-04-07T22:54:45.932Z,47.30
2023-04-07T22:57:13.217Z,47.50
2023-04-07T22:59:40.489Z,47.70
2023-04-07T23:02:10.233Z,47.60
2023-04-07T23:04:37.586Z,47.70
2023-04-07T23:07:04.901Z,47.80
2023-04-07T23:09:34.510Z,47.60
2023-04-07T23:12:04.606Z,47.90
2023-04-07T23:14:31.874Z,47.70
2023-04-07T23:16:59.305Z,47.70
2023-04-07T23:19:26.730Z,47.70
2023-04-07T23:21:56.744Z,47.70
2023-04-07T23:24:24.022Z,47.70
2023-04-07T23:26:51.432Z,47.70
2023-04-07T23:29:21.642Z,48.00
2023-04-07T23:31:48.975Z,48.10
2023-04-07T23:34:16.408Z,48.00
2023-04-07T23:36:45.907Z,48.00
2023-04-07T23:39:13.176Z,48.10
2023-04-07T23:41:41.035Z,48.10
2023-04-07T23:44:08.440Z,48.10
2023-04-07T23:46:35.938Z,48.10
2023-04-07T23:49:03.204Z,48.30
2023-04-07T23:51:30.645Z,48.60
2023-04-07T23:54:00.336Z,48.70
2023-04-07T23:56:28.966Z,48.60
2023-04-07T23:58:56.347Z,48.70
